sensor_id;sensor_type;location;lat;lon;timestamp;pressure;altitude;pressure_sealevel;temperature;humidity
41044;BME280;51680;49.806;18.774;2023-04-19T00:01:42;97624.56;;;13.34;75.70
41044;BME280;51680;49.806;18.774;2023-04-19T00:04:44;97618.50;;;13.34;75.87
41044;BME280;51680;49.806;18.774;2023-04-19T00:07:46;97620.97;;;13.35;75.74
41044;BME280;51680;49.806;18.774;2023-04-19T00:10:48;97620.25;;;13.33;76.32
41044;BME280;51680;49.806;18.774;2023-04-19T00:13:50;97610.72;;;13.32;76.46
41044;BME280;51680;49.806;18.774;2023-04-19T00:16:53;97611.44;;;13.34;76.61
41044;BME280;51680;49.806;18.774;2023-04-19T00:19:55;97609.06;;;13.31;76.71
41044;BME280;51680;49.806;18.774;2023-04-19T00:22:57;97604.63;;;13.32;76.99
41044;BME280;51680;49.806;18.774;2023-04-19T00:26:01;97600.25;;;13.32;77.42
41044;BME280;51680;49.806;18.774;2023-04-19T00:29:03;97601.91;;;13.33;77.27
41044;BME280;51680;49.806;18.774;2023-04-19T00:32:08;97595.00;;;13.32;77.47
41044;BME280;51680;49.806;18.774;2023-04-19T00:35:10;97593.94;;;13.35;77.48
41044;BME280;51680;49.806;18.774;2023-04-19T00:38:12;97580.72;;;13.36;77.40
41044;BME280;51680;49.806;18.774;2023-04-19T00:41:14;97584.91;;;13.39;77.56
41044;BME280;51680;49.806;18.774;2023-04-19T00:44:16;97581.34;;;13.40;77.55
41044;BME280;51680;49.806;18.774;2023-04-19T00:47:19;97576.94;;;13.40;77.69
41044;BME280;51680;49.806;18.774;2023-04-19T00:50:21;97571.91;;;13.37;78.00
41044;BME280;51680;49.806;18.774;2023-04-19T00:53:23;97570.00;;;13.39;77.81
41044;BME280;51680;49.806;18.774;2023-04-19T00:56:26;97570.84;;;13.40;77.73
41044;BME280;51680;49.806;18.774;2023-04-19T00:59:28;97567.63;;;13.36;78.09
41044;BME280;51680;49.806;18.774;2023-04-19T01:02:31;97560.81;;;13.34;78.38
41044;BME280;51680;49.806;18.774;2023-04-19T01:05:33;97554.91;;;13.30;78.46
41044;BME280;51680;49.806;18.774;2023-04-19T01:08:35;97550.41;;;13.32;78.28
41044;BME280;51680;49.806;18.774;2023-04-19T01:11:37;97545.19;;;13.32;78.25
41044;BME280;51680;49.806;18.774;2023-04-19T01:14:38;97545.28;;;13.31;78.37
41044;BME280;51680;49.806;18.774;2023-04-19T01:17:42;97546.34;;;13.28;78.69
41044;BME280;51680;49.806;18.774;2023-04-19T01:20:43;97538.94;;;13.22;78.70
41044;BME280;51680;49.806;18.774;2023-04-19T01:23:47;97532.72;;;13.23;78.84
41044;BME280;51680;49.806;18.774;2023-04-19T01:26:49;97531.28;;;13.19;79.17
41044;BME280;51680;49.806;18.774;2023-04-19T01:29:51;97536.84;;;13.15;79.04
41044;BME280;51680;49.806;18.774;2023-04-19T01:32:52;97529.31;;;13.10;79.30
41044;BME280;51680;49.806;18.774;2023-04-19T01:35:54;97521.69;;;13.07;79.68
41044;BME280;51680;49.806;18.774;2023-04-19T01:39:16;97514.03;;;13.04;79.95
41044;BME280;51680;49.806;18.774;2023-04-19T01:42:18;97508.78;;;13.04;79.73
41044;BME280;51680;49.806;18.774;2023-04-19T01:45:19;97509.50;;;13.06;80.01
41044;BME280;51680;49.806;18.774;2023-04-19T01:48:24;97502.59;;;13.05;80.31
41044;BME280;51680;49.806;18.774;2023-04-19T01:51:27;97498.31;;;13.04;80.06
41044;BME280;51680;49.806;18.774;2023-04-19T01:54:30;97498.19;;;13.06;80.44
41044;BME280;51680;49.806;18.774;2023-04-19T01:57:32;97487.81;;;13.04;80.31
41044;BME280;51680;49.806;18.774;2023-04-19T02:00:34;97482.59;;;13.04;80.70
41044;BME280;51680;49.806;18.774;2023-04-19T02:03:38;97486.06;;;13.05;80.83
41044;BME280;51680;49.806;18.774;2023-04-19T02:06:40;97477.56;;;13.01;81.17
41044;BME280;51680;49.806;18.774;2023-04-19T02:09:43;97474.22;;;12.99;80.88
41044;BME280;51680;49.806;18.774;2023-04-19T02:12:45;97481.91;;;12.77;84.88
41044;BME280;51680;49.806;18.774;2023-04-19T02:15:48;97467.22;;;12.75;81.79
41044;BME280;51680;49.806;18.774;2023-04-19T02:18:50;97468.09;;;12.75;82.05
41044;BME280;51680;49.806;18.774;2023-04-19T02:21:52;97460.94;;;12.77;82.23
41044;BME280;51680;49.806;18.774;2023-04-19T02:24:58;97456.19;;;12.82;82.31
41044;BME280;51680;49.806;18.774;2023-04-19T02:28:03;97454.44;;;12.83;82.12
41044;BME280;51680;49.806;18.774;2023-04-19T02:31:05;97457.91;;;12.83;82.42
41044;BME280;51680;49.806;18.774;2023-04-19T02:34:08;97453.72;;;12.81;82.23
41044;BME280;51680;49.806;18.774;2023-04-19T02:37:10;97454.31;;;12.84;82.70
41044;BME280;51680;49.806;18.774;2023-04-19T02:40:13;97457.91;;;12.83;82.40
41044;BME280;51680;49.806;18.774;2023-04-19T02:43:15;97448.59;;;12.79;82.76
41044;BME280;51680;49.806;18.774;2023-04-19T02:46:17;97446.06;;;12.78;83.06
41044;BME280;51680;49.806;18.774;2023-04-19T02:49:20;97445.22;;;12.77;82.88
41044;BME280;51680;49.806;18.774;2023-04-19T02:52:22;97430.56;;;12.75;82.72
41044;BME280;51680;49.806;18.774;2023-04-19T02:55:25;97435.59;;;12.78;83.25
41044;BME280;51680;49.806;18.774;2023-04-19T02:58:37;97427.63;;;12.79;82.83
41044;BME280;51680;49.806;18.774;2023-04-19T03:01:40;97429.91;;;12.84;83.14
41044;BME280;51680;49.806;18.774;2023-04-19T03:04:42;97421.72;;;12.88;82.62
41044;BME280;51680;49.806;18.774;2023-04-19T03:07:44;97411.97;;;12.90;82.81
41044;BME280;51680;49.806;18.774;2023-04-19T03:10:47;97408.38;;;12.91;82.54
41044;BME280;51680;49.806;18.774;2023-04-19T03:13:49;97401.69;;;12.87;82.21
41044;BME280;51680;49.806;18.774;2023-04-19T03:16:51;97403.94;;;12.81;82.29
41044;BME280;51680;49.806;18.774;2023-04-19T03:19:53;97406.88;;;12.76;82.41
41044;BME280;51680;49.806;18.774;2023-04-19T03:22:55;97401.34;;;12.68;82.66
41044;BME280;51680;49.806;18.774;2023-04-19T03:25:58;97396.56;;;12.62;83.11
41044;BME280;51680;49.806;18.774;2023-04-19T03:29:12;97397.72;;;12.58;83.09
41044;BME280;51680;49.806;18.774;2023-04-19T03:32:19;97399.63;;;12.56;83.41
41044;BME280;51680;49.806;18.774;2023-04-19T03:35:21;97396.91;;;12.58;82.92
41044;BME280;51680;49.806;18.774;2023-04-19T03:38:27;97400.13;;;12.61;83.41
41044;BME280;51680;49.806;18.774;2023-04-19T03:41:31;97396.66;;;12.61;83.57
41044;BME280;51680;49.806;18.774;2023-04-19T03:44:44;97392.38;;;12.60;83.58
41044;BME280;51680;49.806;18.774;2023-04-19T03:47:45;97383.56;;;12.61;83.23
41044;BME280;51680;49.806;18.774;2023-04-19T03:50:49;97383.56;;;12.61;83.15
41044;BME280;51680;49.806;18.774;2023-04-19T03:53:53;97375.72;;;12.61;83.62
41044;BME280;51680;49.806;18.774;2023-04-19T03:56:56;97379.91;;;12.63;83.36
41044;BME280;51680;49.806;18.774;2023-04-19T04:00:17;97372.28;;;12.60;83.58
41044;BME280;51680;49.806;18.774;2023-04-19T04:03:26;97380.94;;;12.61;83.62
41044;BME280;51680;49.806;18.774;2023-04-19T04:06:28;97381.69;;;12.63;83.88
41044;BME280;51680;49.806;18.774;2023-04-19T04:09:30;97380.75;;;12.64;83.81
41044;BME280;51680;49.806;18.774;2023-04-19T04:12:34;97383.25;;;12.65;83.85
41044;BME280;51680;49.806;18.774;2023-04-19T04:15:37;97381.69;;;12.63;83.33
41044;BME280;51680;49.806;18.774;2023-04-19T04:18:42;97379.91;;;12.63;83.55
41044;BME280;51680;49.806;18.774;2023-04-19T04:21:48;97374.91;;;12.60;83.97
41044;BME280;51680;49.806;18.774;2023-04-19T04:24:50;97368.72;;;12.61;84.00
41044;BME280;51680;49.806;18.774;2023-04-19T04:28:03;97366.94;;;12.62;83.57
41044;BME280;51680;49.806;18.774;2023-04-19T04:31:05;97361.69;;;12.62;83.67
41044;BME280;51680;49.806;18.774;2023-04-19T04:34:08;97365.59;;;12.56;84.05
41044;BME280;51680;49.806;18.774;2023-04-19T04:37:15;97368.66;;;12.50;83.56
41044;BME280;51680;49.806;18.774;2023-04-19T04:40:17;97360.41;;;12.44;83.55
41044;BME280;51680;49.806;18.774;2023-04-19T04:43:23;97359.78;;;12.40;83.56
41044;BME280;51680;49.806;18.774;2023-04-19T04:46:26;97363.47;;;12.38;83.54
41044;BME280;51680;49.806;18.774;2023-04-19T04:49:46;97368.06;;;12.34;83.76
41044;BME280;51680;49.806;18.774;2023-04-19T04:52:48;97362.81;;;12.34;83.64
41044;BME280;51680;49.806;18.774;2023-04-19T04:55:55;97361.91;;;12.35;83.49
41044;BME280;51680;49.806;18.774;2023-04-19T04:58:58;97350.69;;;12.33;83.35
41044;BME280;51680;49.806;18.774;2023-04-19T05:02:05;97349.03;;;12.32;83.07
41044;BME280;51680;49.806;18.774;2023-04-19T05:05:08;97356.16;;;12.30;83.55
41044;BME280;51680;49.806;18.774;2023-04-19T05:08:11;97348.00;;;12.22;83.59
41044;BME280;51680;49.806;18.774;2023-04-19T05:11:13;97349.50;;;12.14;83.10
41044;BME280;51680;49.806;18.774;2023-04-19T05:14:17;97353.47;;;12.07;83.55
41044;BME280;51680;49.806;18.774;2023-04-19T05:17:19;97349.75;;;11.98;83.85
41044;BME280;51680;49.806;18.774;2023-04-19T05:20:21;97356.63;;;11.99;83.71
41044;BME280;51680;49.806;18.774;2023-04-19T05:23:28;97347.25;;;11.84;84.05
41044;BME280;51680;49.806;18.774;2023-04-19T05:26:31;97349.88;;;11.84;84.45
41044;BME280;51680;49.806;18.774;2023-04-19T05:29:36;97358.16;;;11.78;84.39
41044;BME280;51680;49.806;18.774;2023-04-19T05:32:39;97353.13;;;11.75;84.53
41044;BME280;51680;49.806;18.774;2023-04-19T05:35:44;97361.38;;;11.69;84.73
41044;BME280;51680;49.806;18.774;2023-04-19T05:38:45;97373.00;;;11.65;84.72
41044;BME280;51680;49.806;18.774;2023-04-19T05:41:47;97373.25;;;11.48;84.89
41044;BME280;51680;49.806;18.774;2023-04-19T05:44:50;97378.56;;;11.34;84.43
41044;BME280;51680;49.806;18.774;2023-04-19T05:47:52;97378.56;;;11.22;84.41
41044;BME280;51680;49.806;18.774;2023-04-19T05:51:13;97380.03;;;11.13;84.61
41044;BME280;51680;49.806;18.774;2023-04-19T05:54:42;97378.34;;;11.12;84.21
41044;BME280;51680;49.806;18.774;2023-04-19T05:57:45;97370.94;;;11.06;84.45
41044;BME280;51680;49.806;18.774;2023-04-19T06:00:50;97371.66;;;11.08;84.15
41044;BME280;51680;49.806;18.774;2023-04-19T06:03:54;97375.66;;;11.14;84.31
41044;BME280;51680;49.806;18.774;2023-04-19T06:06:56;97369.75;;;11.10;83.65
41044;BME280;51680;49.806;18.774;2023-04-19T06:09:57;97378.53;;;11.09;83.58
41044;BME280;51680;49.806;18.774;2023-04-19T06:13:00;97372.59;;;11.07;83.36
41044;BME280;51680;49.806;18.774;2023-04-19T06:16:03;97370.19;;;11.04;82.71
41044;BME280;51680;49.806;18.774;2023-04-19T06:19:06;97376.66;;;10.99;83.21
41044;BME280;51680;49.806;18.774;2023-04-19T06:22:08;97382.28;;;11.05;83.00
41044;BME280;51680;49.806;18.774;2023-04-19T06:25:10;97377.59;;;11.10;83.08
41044;BME280;51680;49.806;18.774;2023-04-19T06:28:12;97377.94;;;11.18;83.03
41044;BME280;51680;49.806;18.774;2023-04-19T06:31:15;97382.66;;;11.26;82.68
41044;BME280;51680;49.806;18.774;2023-04-19T06:34:17;97379.53;;;11.33;83.22
41044;BME280;51680;49.806;18.774;2023-04-19T06:37:18;97381.00;;;11.37;83.20
41044;BME280;51680;49.806;18.774;2023-04-19T06:40:20;97377.34;;;11.40;82.88
41044;BME280;51680;49.806;18.774;2023-04-19T06:43:22;97386.97;;;11.39;83.00
41044;BME280;51680;49.806;18.774;2023-04-19T06:46:25;97387.09;;;11.50;82.79
41044;BME280;51680;49.806;18.774;2023-04-19T06:49:28;97376.56;;;11.64;83.11
41044;BME280;51680;49.806;18.774;2023-04-19T06:52:29;97372.69;;;11.82;82.58
41044;BME280;51680;49.806;18.774;2023-04-19T06:55:31;97374.09;;;11.99;82.72
41044;BME280;51680;49.806;18.774;2023-04-19T06:58:33;97369.78;;;12.10;82.71
41044;BME280;51680;49.806;18.774;2023-04-19T07:01:37;97374.72;;;12.15;82.67
41044;BME280;51680;49.806;18.774;2023-04-19T07:04:39;97378.34;;;12.25;82.41
41044;BME280;51680;49.806;18.774;2023-04-19T07:07:41;97373.53;;;12.31;82.07
41044;BME280;51680;49.806;18.774;2023-04-19T07:10:43;97371.41;;;12.36;81.93
41044;BME280;51680;49.806;18.774;2023-04-19T07:13:44;97363.91;;;12.19;82.64
41044;BME280;51680;49.806;18.774;2023-04-19T07:16:48;97373.59;;;12.06;82.63
41044;BME280;51680;49.806;18.774;2023-04-19T07:19:49;97371.28;;;12.02;82.97
41044;BME280;51680;49.806;18.774;2023-04-19T07:22:51;97366.56;;;12.07;83.11
41044;BME280;51680;49.806;18.774;2023-04-19T07:25:53;97378.91;;;12.17;82.48
41044;BME280;51680;49.806;18.774;2023-04-19T07:28:55;97371.13;;;12.28;82.33
41044;BME280;51680;49.806;18.774;2023-04-19T07:31:58;97373.09;;;12.37;82.25
41044;BME280;51680;49.806;18.774;2023-04-19T07:35:01;97367.75;;;12.39;82.32
41044;BME280;51680;49.806;18.774;2023-04-19T07:38:02;97372.75;;;12.42;82.35
41044;BME280;51680;49.806;18.774;2023-04-19T07:41:05;97367.66;;;12.40;82.36
41044;BME280;51680;49.806;18.774;2023-04-19T07:44:07;97376.22;;;12.42;81.86
41044;BME280;51680;49.806;18.774;2023-04-19T07:47:10;97371.81;;;12.43;81.61
41044;BME280;51680;49.806;18.774;2023-04-19T07:50:12;97373.69;;;12.41;82.08
41044;BME280;51680;49.806;18.774;2023-04-19T07:53:13;97368.25;;;12.44;81.79
41044;BME280;51680;49.806;18.774;2023-04-19T07:56:15;97370.06;;;12.31;81.48
41044;BME280;51680;49.806;18.774;2023-04-19T07:59:19;97371.88;;;12.18;81.50
41044;BME280;51680;49.806;18.774;2023-04-19T08:02:22;97371.69;;;12.08;81.25
41044;BME280;51680;49.806;18.774;2023-04-19T08:05:24;97364.38;;;12.01;81.46
41044;BME280;51680;49.806;18.774;2023-04-19T08:08:26;97360.63;;;12.05;80.83
41044;BME280;51680;49.806;18.774;2023-04-19T08:11:28;97375.88;;;12.11;81.32
41044;BME280;51680;49.806;18.774;2023-04-19T08:14:30;97358.41;;;12.11;80.25
41044;BME280;51680;49.806;18.774;2023-04-19T08:17:33;97367.19;;;11.98;80.03
41044;BME280;51680;49.806;18.774;2023-04-19T08:20:35;97368.69;;;11.89;80.35
41044;BME280;51680;49.806;18.774;2023-04-19T08:23:37;97368.72;;;11.77;80.75
41044;BME280;51680;49.806;18.774;2023-04-19T08:26:39;97373.19;;;11.62;81.02
41044;BME280;51680;49.806;18.774;2023-04-19T08:29:41;97371.06;;;11.55;81.31
41044;BME280;51680;49.806;18.774;2023-04-19T08:32:44;97368.34;;;11.44;81.29
41044;BME280;51680;49.806;18.774;2023-04-19T08:35:46;97371.28;;;11.39;81.92
41044;BME280;51680;49.806;18.774;2023-04-19T08:38:48;97366.34;;;11.22;81.62
41044;BME280;51680;49.806;18.774;2023-04-19T08:41:50;97368.53;;;11.16;81.42
41044;BME280;51680;49.806;18.774;2023-04-19T08:44:53;97368.84;;;11.11;81.69
41044;BME280;51680;49.806;18.774;2023-04-19T08:48:00;97379.16;;;11.13;81.97
41044;BME280;51680;49.806;18.774;2023-04-19T08:51:03;97372.94;;;11.15;81.47
41044;BME280;51680;49.806;18.774;2023-04-19T08:54:06;97380.63;;;11.04;81.10
41044;BME280;51680;49.806;18.774;2023-04-19T08:57:08;97370.00;;;11.07;80.95
41044;BME280;51680;49.806;18.774;2023-04-19T09:00:12;97370.84;;;11.20;81.58
41044;BME280;51680;49.806;18.774;2023-04-19T09:03:16;97374.00;;;11.38;81.64
41044;BME280;51680;49.806;18.774;2023-04-19T09:06:18;97359.41;;;11.60;81.45
41044;BME280;51680;49.806;18.774;2023-04-19T09:09:21;97364.72;;;11.84;80.63
41044;BME280;51680;49.806;18.774;2023-04-19T09:12:23;97364.47;;;12.12;80.67
41044;BME280;51680;49.806;18.774;2023-04-19T09:15:35;97356.94;;;12.43;80.36
41044;BME280;51680;49.806;18.774;2023-04-19T09:18:54;97358.06;;;12.75;79.48
41044;BME280;51680;49.806;18.774;2023-04-19T09:21:56;97357.97;;;12.77;77.55
41044;BME280;51680;49.806;18.774;2023-04-19T09:24:59;97362.34;;;12.53;76.44
41044;BME280;51680;49.806;18.774;2023-04-19T09:28:10;97365.56;;;12.33;75.70
41044;BME280;51680;49.806;18.774;2023-04-19T09:31:12;97363.50;;;12.13;77.11
41044;BME280;51680;49.806;18.774;2023-04-19T09:34:17;97369.78;;;12.10;77.42
41044;BME280;51680;49.806;18.774;2023-04-19T09:37:19;97375.13;;;12.21;78.92
41044;BME280;51680;49.806;18.774;2023-04-19T09:40:22;97368.50;;;12.28;78.28
41044;BME280;51680;49.806;18.774;2023-04-19T09:43:24;97365.56;;;12.33;77.98
41044;BME280;51680;49.806;18.774;2023-04-19T09:46:30;97367.78;;;12.26;77.75
41044;BME280;51680;49.806;18.774;2023-04-19T09:49:33;97365.81;;;12.17;78.28
41044;BME280;51680;49.806;18.774;2023-04-19T09:52:36;97364.56;;;12.10;78.18
41044;BME280;51680;49.806;18.774;2023-04-19T09:55:39;97361.53;;;12.16;77.96
41044;BME280;51680;49.806;18.774;2023-04-19T09:58:42;97354.69;;;12.26;77.87
41044;BME280;51680;49.806;18.774;2023-04-19T10:01:46;97360.34;;;12.56;77.87
41044;BME280;51680;49.806;18.774;2023-04-19T10:04:49;97357.88;;;12.66;78.95
41044;BME280;51680;49.806;18.774;2023-04-19T10:07:51;97353.34;;;12.91;76.80
41044;BME280;51680;49.806;18.774;2023-04-19T10:10:55;97358.44;;;13.05;74.37
41044;BME280;51680;49.806;18.774;2023-04-19T10:13:59;97351.56;;;13.15;73.71
41044;BME280;51680;49.806;18.774;2023-04-19T10:17:02;97346.97;;;13.19;73.60
41044;BME280;51680;49.806;18.774;2023-04-19T10:20:29;97351.06;;;13.10;73.07
41044;BME280;51680;49.806;18.774;2023-04-19T10:23:33;97359.41;;;13.04;73.00
41044;BME280;51680;49.806;18.774;2023-04-19T10:27:09;97352.66;;;12.89;68.69
41044;BME280;51680;49.806;18.774;2023-04-19T10:30:18;97354.63;;;12.98;71.11
41044;BME280;51680;49.806;18.774;2023-04-19T10:33:39;97360.50;;;13.13;71.61
41044;BME280;51680;49.806;18.774;2023-04-19T10:36:44;97356.88;;;13.37;71.92
41044;BME280;51680;49.806;18.774;2023-04-19T10:39:45;97362.63;;;13.53;72.04
41044;BME280;51680;49.806;18.774;2023-04-19T10:43:14;97363.16;;;13.69;71.33
41044;BME280;51680;49.806;18.774;2023-04-19T10:46:36;97368.63;;;13.77;69.50
41044;BME280;51680;49.806;18.774;2023-04-19T10:49:43;97368.88;;;13.74;69.99
41044;BME280;51680;49.806;18.774;2023-04-19T10:52:47;97371.47;;;13.63;71.51
41044;BME280;51680;49.806;18.774;2023-04-19T10:55:49;97364.06;;;13.57;72.64
41044;BME280;51680;49.806;18.774;2023-04-19T10:59:16;97356.41;;;13.43;72.29
41044;BME280;51680;49.806;18.774;2023-04-19T11:02:27;97356.44;;;13.09;73.59
41044;BME280;51680;49.806;18.774;2023-04-19T11:06:15;97352.22;;;12.72;73.92
41044;BME280;51680;49.806;18.774;2023-04-19T11:09:22;97342.31;;;12.28;74.72
41044;BME280;51680;49.806;18.774;2023-04-19T11:12:24;97356.44;;;12.02;75.12
41044;BME280;51680;49.806;18.774;2023-04-19T11:15:25;97367.66;;;11.79;75.72
41044;BME280;51680;49.806;18.774;2023-04-19T11:18:28;97372.38;;;11.62;76.29
41044;BME280;51680;49.806;18.774;2023-04-19T11:21:30;97385.72;;;11.45;76.88
41044;BME280;51680;49.806;18.774;2023-04-19T11:24:35;97381.31;;;11.33;77.57
41044;BME280;51680;49.806;18.774;2023-04-19T11:27:37;97395.19;;;11.21;77.56
41044;BME280;51680;49.806;18.774;2023-04-19T11:30:58;97392.97;;;11.02;78.22
41044;BME280;51680;49.806;18.774;2023-04-19T11:34:01;97390.31;;;10.90;78.47
41044;BME280;51680;49.806;18.774;2023-04-19T11:37:03;97389.97;;;10.82;78.80
41044;BME280;51680;49.806;18.774;2023-04-19T11:40:08;97391.84;;;10.80;79.01
41044;BME280;51680;49.806;18.774;2023-04-19T11:43:31;97390.47;;;10.74;78.79
41044;BME280;51680;49.806;18.774;2023-04-19T11:46:33;97386.78;;;10.64;78.61
41044;BME280;51680;49.806;18.774;2023-04-19T11:49:35;97390.16;;;10.52;79.12
41044;BME280;51680;49.806;18.774;2023-04-19T11:52:37;97391.88;;;10.39;79.57
41044;BME280;51680;49.806;18.774;2023-04-19T11:55:43;97395.81;;;10.32;80.07
41044;BME280;51680;49.806;18.774;2023-04-19T11:58:45;97394.72;;;10.22;80.10
41044;BME280;51680;49.806;18.774;2023-04-19T12:01:48;97397.50;;;10.19;80.26
41044;BME280;51680;49.806;18.774;2023-04-19T12:04:50;97398.66;;;10.15;80.50
41044;BME280;51680;49.806;18.774;2023-04-19T12:08:03;97403.66;;;10.18;81.05
41044;BME280;51680;49.806;18.774;2023-04-19T12:11:08;97406.16;;;10.20;80.80
41044;BME280;51680;49.806;18.774;2023-04-19T12:14:11;97407.69;;;10.10;80.60
41044;BME280;51680;49.806;18.774;2023-04-19T12:17:13;97412.69;;;9.99;80.81
41044;BME280;51680;49.806;18.774;2023-04-19T12:20:28;97409.53;;;9.94;81.91
41044;BME280;51680;49.806;18.774;2023-04-19T12:23:29;97412.47;;;9.74;83.10
41044;BME280;51680;49.806;18.774;2023-04-19T12:26:32;97409.06;;;9.73;81.50
41044;BME280;51680;49.806;18.774;2023-04-19T12:29:34;97409.63;;;9.78;81.52
41044;BME280;51680;49.806;18.774;2023-04-19T12:32:36;97409.44;;;9.81;81.08
41044;BME280;51680;49.806;18.774;2023-04-19T12:35:38;97412.94;;;9.80;81.12
41044;BME280;51680;49.806;18.774;2023-04-19T12:38:40;97406.91;;;9.80;80.95
41044;BME280;51680;49.806;18.774;2023-04-19T12:41:43;97412.94;;;9.80;81.21
41044;BME280;51680;49.806;18.774;2023-04-19T12:44:47;97405.91;;;9.82;80.91
41044;BME280;51680;49.806;18.774;2023-04-19T12:47:49;97410.16;;;9.83;81.07
41044;BME280;51680;49.806;18.774;2023-04-19T12:50:51;97411.94;;;9.83;81.34
41044;BME280;51680;49.806;18.774;2023-04-19T12:53:53;97416.50;;;9.79;81.58
41044;BME280;51680;49.806;18.774;2023-04-19T12:56:56;97409.63;;;9.78;81.52
41044;BME280;51680;49.806;18.774;2023-04-19T12:59:58;97407.19;;;9.75;81.74
41044;BME280;51680;49.806;18.774;2023-04-19T13:02:59;97406.72;;;9.69;81.51
41044;BME280;51680;49.806;18.774;2023-04-19T13:06:01;97403.44;;;9.65;81.77
41044;BME280;51680;49.806;18.774;2023-04-19T13:09:03;97408.88;;;9.62;81.93
41044;BME280;51680;49.806;18.774;2023-04-19T13:12:07;97405.31;;;9.63;81.90
41044;BME280;51680;49.806;18.774;2023-04-19T13:15:09;97407.00;;;9.64;82.20
41044;BME280;51680;49.806;18.774;2023-04-19T13:18:11;97406.91;;;9.66;82.09
41044;BME280;51680;49.806;18.774;2023-04-19T13:21:13;97408.41;;;9.70;81.94
41044;BME280;51680;49.806;18.774;2023-04-19T13:24:14;97416.31;;;9.68;81.86
41044;BME280;51680;49.806;18.774;2023-04-19T13:27:18;97408.75;;;9.64;81.83
41044;BME280;51680;49.806;18.774;2023-04-19T13:30:20;97411.28;;;9.65;81.88
41044;BME280;51680;49.806;18.774;2023-04-19T13:33:22;97412.84;;;9.68;81.87
41044;BME280;51680;49.806;18.774;2023-04-19T13:36:24;97415.53;;;9.66;81.76
41044;BME280;51680;49.806;18.774;2023-04-19T13:39:28;97409.59;;;9.64;81.67
41044;BME280;51680;49.806;18.774;2023-04-19T13:42:31;97416.31;;;9.68;81.85
41044;BME280;51680;49.806;18.774;2023-04-19T13:45:33;97409.59;;;9.64;82.00
41044;BME280;51680;49.806;18.774;2023-04-19T13:48:35;97411.28;;;9.65;82.26
41044;BME280;51680;49.806;18.774;2023-04-19T13:51:36;97416.47;;;9.65;82.14
41044;BME280;51680;49.806;18.774;2023-04-19T13:54:38;97412.03;;;9.67;82.24
41044;BME280;51680;49.806;18.774;2023-04-19T13:57:41;97414.09;;;9.62;82.34
41044;BME280;51680;49.806;18.774;2023-04-19T14:00:43;97422.16;;;9.58;82.64
41044;BME280;51680;49.806;18.774;2023-04-19T14:03:48;97418.53;;;9.60;82.29
41044;BME280;51680;49.806;18.774;2023-04-19T14:06:50;97420.13;;;9.63;82.71
41044;BME280;51680;49.806;18.774;2023-04-19T14:09:52;97412.84;;;9.68;82.42
41044;BME280;51680;49.806;18.774;2023-04-19T14:12:55;97412.78;;;9.69;82.33
41044;BME280;51680;49.806;18.774;2023-04-19T14:15:56;97412.84;;;9.68;82.35
41044;BME280;51680;49.806;18.774;2023-04-19T14:18:58;97417.41;;;9.64;82.29
41044;BME280;51680;49.806;18.774;2023-04-19T14:22:00;97419.09;;;9.65;82.34
41044;BME280;51680;49.806;18.774;2023-04-19T14:25:03;97420.19;;;9.61;82.51
41044;BME280;51680;49.806;18.774;2023-04-19T14:28:06;97416.94;;;9.58;82.70
41044;BME280;51680;49.806;18.774;2023-04-19T14:31:08;97422.81;;;9.61;82.92
41044;BME280;51680;49.806;18.774;2023-04-19T14:34:09;97425.25;;;9.64;82.92
41044;BME280;51680;49.806;18.774;2023-04-19T14:37:11;97422.63;;;9.64;82.63
41044;BME280;51680;49.806;18.774;2023-04-19T14:40:13;97423.75;;;9.60;82.62
41044;BME280;51680;49.806;18.774;2023-04-19T14:43:16;97427.38;;;9.58;82.79
41044;BME280;51680;49.806;18.774;2023-04-19T14:46:18;97428.75;;;9.49;83.00
41044;BME280;51680;49.806;18.774;2023-04-19T14:49:20;97440.75;;;9.52;82.97
41044;BME280;51680;49.806;18.774;2023-04-19T14:52:22;97432.94;;;9.52;83.03
41044;BME280;51680;49.806;18.774;2023-04-19T14:55:25;97431.00;;;9.55;83.17
41044;BME280;51680;49.806;18.774;2023-04-19T14:58:28;97435.28;;;9.56;82.62
41044;BME280;51680;49.806;18.774;2023-04-19T15:01:30;97431.00;;;9.55;82.63
41044;BME280;51680;49.806;18.774;2023-04-19T15:04:32;97429.50;;;9.51;82.83
41044;BME280;51680;49.806;18.774;2023-04-19T15:07:34;97436.56;;;9.49;82.44
41044;BME280;51680;49.806;18.774;2023-04-19T15:10:36;97442.72;;;9.48;82.48
41044;BME280;51680;49.806;18.774;2023-04-19T15:13:40;97443.47;;;9.50;82.46
41044;BME280;51680;49.806;18.774;2023-04-19T15:16:42;97446.06;;;9.50;82.71
41044;BME280;51680;49.806;18.774;2023-04-19T15:19:43;97444.88;;;9.56;82.44
41044;BME280;51680;49.806;18.774;2023-04-19T15:22:48;97446.47;;;9.58;82.55
41044;BME280;51680;49.806;18.774;2023-04-19T15:25:50;97450.56;;;9.62;82.65
41044;BME280;51680;49.806;18.774;2023-04-19T15:28:54;97449.34;;;9.68;82.57
41044;BME280;51680;49.806;18.774;2023-04-19T15:31:56;97456.06;;;9.72;82.54
41044;BME280;51680;49.806;18.774;2023-04-19T15:34:58;97469.00;;;9.73;82.57
41044;BME280;51680;49.806;18.774;2023-04-19T15:38:00;97469.75;;;9.75;82.23
41044;BME280;51680;49.806;18.774;2023-04-19T15:41:01;97471.53;;;9.75;82.52
41044;BME280;51680;49.806;18.774;2023-04-19T15:44:04;97478.31;;;9.77;82.26
41044;BME280;51680;49.806;18.774;2023-04-19T15:47:06;97481.09;;;9.74;82.61
41044;BME280;51680;49.806;18.774;2023-04-19T15:50:08;97480.25;;;9.74;82.70
41044;BME280;51680;49.806;18.774;2023-04-19T15:53:10;97479.22;;;9.76;82.28
41044;BME280;51680;49.806;18.774;2023-04-19T15:56:11;97486.97;;;9.78;82.39
41044;BME280;51680;49.806;18.774;2023-04-19T15:59:15;97489.66;;;9.76;82.20
41044;BME280;51680;49.806;18.774;2023-04-19T16:02:17;97486.69;;;9.68;82.49
41044;BME280;51680;49.806;18.774;2023-04-19T16:05:19;97493.72;;;9.66;82.13